createdAt,value
2023-04-20T00:00:43.343Z,63.02
2023-04-20T00:01:46.475Z,62.43
2023-04-20T00:02:48.492Z,62.71
2023-04-20T00:03:50.704Z,62.82
2023-04-20T00:04:55.877Z,62.79
2023-04-20T00:05:58.487Z,63.29
2023-04-20T00:07:00.604Z,63.12
2023-04-20T00:08:03.096Z,63.12
2023-04-20T00:09:05.102Z,63.06
2023-04-20T00:10:08.684Z,63.01
2023-04-20T00:11:11.771Z,63.07
2023-04-20T00:12:13.841Z,62.87
2023-04-20T00:13:15.698Z,62.61
2023-04-20T00:14:18.220Z,62.75
2023-04-20T00:15:20.878Z,63.03
2023-04-20T00:16:25.891Z,63.11
2023-04-20T00:17:28.244Z,63.14
2023-04-20T00:18:30.203Z,62.92
2023-04-20T00:19:32.206Z,62.69
2023-04-20T00:20:34.436Z,62.48
2023-04-20T00:21:38.058Z,62.61
2023-04-20T00:22:40.511Z,62.64
2023-04-20T00:23:42.551Z,62.42
2023-04-20T00:24:44.520Z,62.90
2023-04-20T00:25:46.623Z,62.95
2023-04-20T00:26:48.838Z,63.09
2023-04-20T00:27:50.889Z,62.79
2023-04-20T00:28:53.985Z,62.87
2023-04-20T00:29:56.167Z,63.33
2023-04-20T00:30:58.188Z,63.16
2023-04-20T00:32:02.294Z,62.98
2023-04-20T00:33:04.268Z,63.60
2023-04-20T00:34:06.385Z,63.60
2023-04-20T00:35:09.284Z,63.57
2023-04-20T00:36:12.033Z,64.04
2023-04-20T00:37:14.332Z,63.71
2023-04-20T00:38:16.606Z,63.56
2023-04-20T00:39:18.740Z,63.32
2023-04-20T00:40:20.964Z,63.52
2023-04-20T00:41:23.428Z,63.18
2023-04-20T00:42:25.313Z,63.11
2023-04-20T00:43:27.297Z,63.43
2023-04-20T00:44:29.166Z,63.30
2023-04-20T00:45:31.025Z,63.52
2023-04-20T00:46:33.821Z,63.71
2023-04-20T00:47:35.895Z,64.27
2023-04-20T00:48:37.947Z,64.11
2023-04-20T00:49:41.705Z,64.08
2023-04-20T00:50:44.315Z,64.43
2023-04-20T00:51:46.310Z,64.73
2023-04-20T00:52:48.319Z,65.31
2023-04-20T00:53:50.444Z,64.99
2023-04-20T00:54:52.730Z,64.64
2023-04-20T00:55:55.103Z,64.37
2023-04-20T00:56:58.912Z,64.75
2023-04-20T00:58:01.408Z,65.07
2023-04-20T00:59:03.341Z,64.80
2023-04-20T01:00:07.323Z,65.20
2023-04-20T01:01:14.670Z,65.14
2023-04-20T01:02:18.074Z,65.57
2023-04-20T01:03:20.542Z,65.48
2023-04-20T01:04:23.853Z,65.62
2023-04-20T01:05:27.843Z,65.86
2023-04-20T01:06:30.412Z,65.31
2023-04-20T01:07:32.371Z,65.92
2023-04-20T01:08:34.233Z,65.67
2023-04-20T01:09:39.321Z,66.14
2023-04-20T01:10:41.585Z,66.14
2023-04-20T01:11:45.449Z,65.92
2023-04-20T01:12:47.454Z,65.95
2023-04-20T01:13:49.399Z,65.93
2023-04-20T01:14:51.615Z,65.89
2023-04-20T01:15:56.429Z,65.49
2023-04-20T01:16:59.377Z,65.60
2023-04-20T01:18:01.467Z,65.61
2023-04-20T01:19:03.587Z,65.44
2023-04-20T01:20:11.195Z,66.09
2023-04-20T01:21:16.563Z,66.16
2023-04-20T01:23:34.081Z,66.10
2023-04-20T01:24:36.016Z,66.14
2023-04-20T01:25:38.361Z,66.36
2023-04-20T01:26:40.581Z,66.25
2023-04-20T01:27:43.166Z,66.22
2023-04-20T01:28:45.643Z,66.30
2023-04-20T01:29:47.673Z,66.36
2023-04-20T01:30:49.662Z,66.30
2023-04-20T01:31:51.608Z,66.49
2023-04-20T01:32:53.722Z,66.30
2023-04-20T01:33:55.821Z,66.02
2023-04-20T01:34:58.484Z,65.79
2023-04-20T01:36:00.455Z,65.79
2023-04-20T01:37:02.963Z,65.95
2023-04-20T01:38:05.838Z,66.25
2023-04-20T01:39:10.443Z,66.37
2023-04-20T01:40:14.220Z,66.18
2023-04-20T01:41:18.334Z,66.32
2023-04-20T01:42:21.604Z,65.98
2023-04-20T01:43:24.124Z,65.86
2023-04-20T01:44:26.279Z,66.09
2023-04-20T01:45:28.151Z,65.83
2023-04-20T01:46:30.215Z,66.14
2023-04-20T01:47:33.293Z,65.87
2023-04-20T01:48:35.254Z,65.52
2023-04-20T01:49:37.243Z,65.06
2023-04-20T01:50:39.321Z,64.95
2023-04-20T01:51:41.188Z,65.20
2023-04-20T01:52:43.048Z,64.53
2023-04-20T01:53:44.930Z,65.21
2023-04-20T01:54:47.002Z,65.16
2023-04-20T01:55:49.585Z,65.04
2023-04-20T01:56:51.856Z,64.53
2023-04-20T01:57:53.824Z,64.31
2023-04-20T01:58:55.785Z,64.90
2023-04-20T01:59:57.693Z,64.80
2023-04-20T02:01:02.625Z,64.83
2023-04-20T02:02:05.776Z,64.56
2023-04-20T02:03:07.967Z,64.84
2023-04-20T02:04:10.175Z,65.13
2023-04-20T02:05:12.322Z,64.99
2023-04-20T02:06:14.423Z,65.23
2023-04-20T02:07:17.619Z,65.07
2023-04-20T02:08:20.090Z,64.88
2023-04-20T02:09:21.950Z,64.85
2023-04-20T02:10:24.161Z,65.03
2023-04-20T02:11:26.119Z,64.91
2023-04-20T02:12:28.098Z,64.90
2023-04-20T02:13:29.953Z,64.90
2023-04-20T02:14:31.812Z,65.19
2023-04-20T02:15:34.092Z,65.19
2023-04-20T02:16:36.381Z,65.00
2023-04-20T02:17:38.394Z,64.70
2023-04-20T02:18:41.661Z,64.78
2023-04-20T02:19:43.805Z,64.96
2023-04-20T02:20:46.540Z,64.83
2023-04-20T02:21:48.554Z,65.53
2023-04-20T02:22:50.489Z,65.44
2023-04-20T02:23:52.704Z,65.30
2023-04-20T02:24:55.579Z,64.79
2023-04-20T02:25:57.556Z,64.90
2023-04-20T02:26:59.702Z,65.73
2023-04-20T02:28:01.704Z,65.50
2023-04-20T02:29:04.755Z,65.50
2023-04-20T02:30:07.640Z,65.39
2023-04-20T02:31:09.941Z,65.46
2023-04-20T02:32:11.915Z,65.21
2023-04-20T02:33:14.119Z,65.22
2023-04-20T02:34:16.182Z,65.12
2023-04-20T02:35:18.779Z,65.12
2023-04-20T02:36:21.052Z,65.41
2023-04-20T02:37:22.918Z,64.93
2023-04-20T02:38:24.792Z,64.75
2023-04-20T02:39:26.718Z,65.29
2023-04-20T02:40:28.705Z,65.56
2023-04-20T02:41:30.584Z,65.77
2023-04-20T02:42:32.490Z,65.53
2023-04-20T02:43:34.476Z,65.42
2023-04-20T02:44:36.478Z,64.95
2023-04-20T02:45:38.348Z,65.15
2023-04-20T02:46:41.595Z,65.12
2023-04-20T02:47:44.880Z,64.78
2023-04-20T02:48:46.920Z,64.38
2023-04-20T02:49:48.978Z,64.34
2023-04-20T02:50:54.669Z,63.92
2023-04-20T02:51:56.743Z,64.12
2023-04-20T02:52:58.624Z,63.82
2023-04-20T02:54:00.642Z,64.30
2023-04-20T02:55:02.924Z,64.40
2023-04-20T02:56:05.283Z,64.37
2023-04-20T02:57:07.403Z,63.84
2023-04-20T02:58:09.266Z,63.85
2023-04-20T02:59:11.145Z,63.64
2023-04-20T03:00:13.832Z,63.08
2023-04-20T03:01:15.895Z,63.56
2023-04-20T03:02:17.834Z,63.87
2023-04-20T03:03:20.440Z,63.76
2023-04-20T03:04:22.674Z,63.54
2023-04-20T03:05:24.763Z,63.30
2023-04-20T03:06:26.860Z,63.98
2023-04-20T03:07:28.743Z,63.81
2023-04-20T03:08:31.001Z,63.06
2023-04-20T03:09:32.921Z,63.05
2023-04-20T03:10:35.014Z,63.44
2023-04-20T03:11:36.957Z,63.02
2023-04-20T03:12:38.821Z,62.88
2023-04-20T03:13:40.850Z,62.64
2023-04-20T03:14:42.833Z,63.31
2023-04-20T03:15:44.699Z,62.88
2023-04-20T03:16:47.547Z,62.83
2023-04-20T03:17:49.673Z,62.72
2023-04-20T03:18:51.913Z,63.54
2023-04-20T03:19:53.778Z,63.11
2023-04-20T03:20:55.822Z,63.59
2023-04-20T03:21:57.718Z,63.40
2023-04-20T03:23:00.939Z,63.10
2023-04-20T03:24:04.871Z,63.39
2023-04-20T03:25:08.011Z,63.17
2023-04-20T03:26:10.339Z,63.57
2023-04-20T03:27:15.662Z,63.27
2023-04-20T03:28:17.657Z,63.86
2023-04-20T03:29:20.535Z,63.63
2023-04-20T03:30:23.023Z,64.31
2023-04-20T03:31:24.919Z,64.03
2023-04-20T03:32:27.983Z,64.13
2023-04-20T03:33:30.055Z,64.10
2023-04-20T03:34:31.922Z,63.79
2023-04-20T03:35:33.954Z,63.48
2023-04-20T03:36:36.059Z,63.16
2023-04-20T03:37:38.164Z,63.38
2023-04-20T03:38:40.310Z,63.70
2023-04-20T03:39:43.431Z,63.73
2023-04-20T03:40:45.488Z,63.86
2023-04-20T03:41:47.439Z,64.30
2023-04-20T03:42:49.293Z,64.41
2023-04-20T03:43:51.197Z,64.19
2023-04-20T03:44:53.184Z,64.63
2023-04-20T03:45:55.402Z,64.49
2023-04-20T03:46:58.515Z,64.35
2023-04-20T03:48:00.423Z,65.04
2023-04-20T03:49:03.868Z,64.70
2023-04-20T03:50:07.376Z,64.47
2023-04-20T03:51:09.500Z,64.62
2023-04-20T03:52:11.664Z,64.62
2023-04-20T03:53:13.548Z,64.66
2023-04-20T03:54:15.411Z,64.89
2023-04-20T03:55:17.502Z,64.55
2023-04-20T03:56:19.488Z,64.58
2023-04-20T03:57:21.354Z,64.65
2023-04-20T03:58:23.322Z,64.68
2023-04-20T03:59:25.175Z,64.95
2023-04-20T04:00:28.378Z,65.05
2023-04-20T04:01:30.645Z,65.19
2023-04-20T04:02:32.562Z,65.26
2023-04-20T04:03:35.937Z,65.47
2023-04-20T04:04:39.064Z,65.87
2023-04-20T04:05:41.311Z,66.23
2023-04-20T04:06:43.489Z,66.58
2023-04-20T04:07:46.607Z,67.24
2023-04-20T04:08:48.535Z,67.67
2023-04-20T04:09:50.424Z,68.11
2023-04-20T04:10:52.714Z,67.79
2023-04-20T04:11:54.603Z,68.20
2023-04-20T04:12:57.261Z,68.57
2023-04-20T04:13:59.242Z,68.50
2023-04-20T04:15:01.983Z,68.98
2023-04-20T04:16:04.467Z,68.97
2023-04-20T04:17:06.454Z,68.96
2023-04-20T04:18:09.023Z,69.76
2023-04-20T04:19:11.105Z,70.75
2023-04-20T04:20:13.320Z,70.73
2023-04-20T04:21:16.586Z,70.62
2023-04-20T04:22:18.567Z,70.35
2023-04-20T04:23:20.515Z,70.19
2023-04-20T04:24:22.370Z,70.57
2023-04-20T04:25:24.283Z,70.97
2023-04-20T04:26:27.461Z,70.77
2023-04-20T04:27:29.391Z,70.41
2023-04-20T04:28:31.347Z,70.56
2023-04-20T04:29:33.536Z,70.59
2023-04-20T04:30:35.492Z,70.86
2023-04-20T04:31:37.388Z,70.80
2023-04-20T04:32:39.949Z,71.17
2023-04-20T04:33:43.099Z,72.36
2023-04-20T04:34:44.949Z,71.79
2023-04-20T04:35:46.913Z,71.27
2023-04-20T04:36:49.730Z,72.01
2023-04-20T04:37:51.786Z,71.97
2023-04-20T04:38:53.734Z,71.81
2023-04-20T04:39:55.607Z,72.43
2023-04-20T04:40:59.807Z,72.32
2023-04-20T04:42:03.650Z,72.60
2023-04-20T04:43:05.512Z,72.80
2023-04-20T04:44:07.476Z,72.90
2023-04-20T04:45:11.251Z,73.09
2023-04-20T04:46:13.325Z,73.53
2023-04-20T04:47:15.390Z,73.36
2023-04-20T04:48:17.439Z,74.61
2023-04-20T04:49:19.791Z,75.04
2023-04-20T04:50:22.349Z,75.68
2023-04-20T04:51:24.496Z,76.02
2023-04-20T04:52:27.540Z,75.48
2023-04-20T04:53:29.901Z,76.08
2023-04-20T04:54:31.940Z,76.62
2023-04-20T04:55:33.813Z,77.66
2023-04-20T04:56:35.898Z,76.58
2023-04-20T04:57:38.061Z,77.81
2023-04-20T04:58:40.033Z,78.09
2023-04-20T04:59:41.987Z,78.14
2023-04-20T05:00:44.413Z,78.53
2023-04-20T05:01:46.532Z,78.93
2023-04-20T05:02:48.859Z,79.81
2023-04-20T05:03:51.040Z,79.59
2023-04-20T05:04:53.111Z,80.08
2023-04-20T05:05:55.339Z,80.74
2023-04-20T05:06:57.452Z,81.14
2023-04-20T05:07:59.489Z,81.40
2023-04-20T05:09:01.356Z,81.79
2023-04-20T05:10:04.962Z,82.04
2023-04-20T05:11:06.953Z,83.03
2023-04-20T05:12:09.167Z,82.40
2023-04-20T05:13:11.033Z,83.57
2023-04-20T05:14:13.660Z,83.22
2023-04-20T05:15:15.563Z,83.88
2023-04-20T05:16:17.978Z,83.71
2023-04-20T05:17:20.121Z,84.29
2023-04-20T05:18:22.173Z,84.42
2023-04-20T05:19:24.173Z,85.18
2023-04-20T05:20:26.249Z,85.01
2023-04-20T05:21:28.148Z,85.32
2023-04-20T05:22:30.016Z,86.46
2023-04-20T05:23:31.998Z,86.24
2023-04-20T05:24:33.869Z,86.33
2023-04-20T05:25:36.985Z,86.96
2023-04-20T05:26:39.136Z,87.27
2023-04-20T05:27:42.330Z,87.67
2023-04-20T05:28:44.728Z,88.00
2023-04-20T05:29:47.659Z,87.43
2023-04-20T05:30:49.746Z,88.37
2023-04-20T05:31:51.895Z,88.72
2023-04-20T05:32:54.243Z,89.05
2023-04-20T05:33:56.395Z,88.71
2023-04-20T05:34:58.365Z,89.77
2023-04-20T05:36:00.376Z,89.46
2023-04-20T05:37:04.058Z,90.10
2023-04-20T05:38:06.273Z,90.77
2023-04-20T05:39:08.379Z,90.61
2023-04-20T05:40:13.683Z,90.74
2023-04-20T05:41:15.838Z,91.52
2023-04-20T05:42:17.795Z,91.71
2023-04-20T05:43:19.683Z,91.56
2023-04-20T05:44:21.846Z,91.73
2023-04-20T05:45:23.869Z,92.15
2023-04-20T05:46:26.141Z,92.89
2023-04-20T05:47:28.351Z,93.36
2023-04-20T05:48:30.440Z,93.31
2023-04-20T05:49:32.571Z,93.29
2023-04-20T05:50:34.622Z,93.78
2023-04-20T05:51:36.648Z,93.58
2023-04-20T05:52:38.615Z,93.89
2023-04-20T05:53:41.650Z,93.87
2023-04-20T05:54:43.502Z,94.10
2023-04-20T05:55:45.346Z,93.45
2023-04-20T05:56:49.582Z,93.35
2023-04-20T05:57:52.046Z,93.02
2023-04-20T05:58:55.338Z,93.58
2023-04-20T05:59:57.235Z,93.56
2023-04-20T06:00:59.291Z,92.95
2023-04-20T06:02:01.342Z,93.36
2023-04-20T06:03:03.623Z,93.38
2023-04-20T06:04:05.958Z,93.57
2023-04-20T06:05:09.700Z,93.17
2023-04-20T06:06:12.127Z,93.08
2023-04-20T06:07:13.988Z,93.59
2023-04-20T06:08:16.244Z,93.28
2023-04-20T06:09:18.430Z,93.80
2023-04-20T06:10:23.472Z,94.10
2023-04-20T06:11:25.376Z,92.78
2023-04-20T06:12:28.132Z,93.11
2023-04-20T06:13:31.293Z,93.07
2023-04-20T06:14:35.279Z,92.49
2023-04-20T06:15:37.192Z,92.77
2023-04-20T06:16:40.935Z,93.83
2023-04-20T06:17:43.059Z,93.96
2023-04-20T06:18:45.296Z,94.61
2023-04-20T06:19:47.368Z,94.35
2023-04-20T06:20:49.546Z,93.45
2023-04-20T06:21:53.692Z,93.39
2023-04-20T06:22:56.748Z,93.99
2023-04-20T06:23:58.742Z,93.43
2023-04-20T06:25:01.808Z,94.10
2023-04-20T06:26:04.961Z,93.47
2023-04-20T06:27:07.510Z,93.80
2023-04-20T06:28:09.411Z,93.01
2023-04-20T06:29:11.274Z,93.20
2023-04-20T06:30:14.609Z,93.09
2023-04-20T06:31:18.336Z,92.48
2023-04-20T06:32:22.373Z,92.47
2023-04-20T06:33:24.548Z,91.58
2023-04-20T06:34:26.393Z,91.18
2023-04-20T06:35:28.796Z,91.94
2023-04-20T06:36:30.886Z,91.43
2023-04-20T06:37:34.920Z,91.66
2023-04-20T06:38:37.125Z,91.22
2023-04-20T06:39:39.156Z,91.26
2023-04-20T06:40:41.265Z,91.52
2023-04-20T06:41:43.610Z,90.78
2023-04-20T06:42:45.507Z,90.80
2023-04-20T06:43:47.521Z,90.50
2023-04-20T06:44:49.372Z,89.76
2023-04-20T06:45:51.251Z,89.60
2023-04-20T06:46:53.383Z,89.73
2023-04-20T06:47:55.394Z,90.56
2023-04-20T06:48:57.571Z,89.75
2023-04-20T06:50:05.099Z,90.18
2023-04-20T06:51:07.141Z,89.45
2023-04-20T06:52:09.522Z,88.92
2023-04-20T06:53:11.413Z,88.49
2023-04-20T06:54:13.326Z,88.67
2023-04-20T06:55:18.352Z,88.13
2023-04-20T06:56:21.825Z,88.28
2023-04-20T06:57:23.732Z,87.98
2023-04-20T06:58:26.139Z,87.77
2023-04-20T06:59:28.010Z,87.58
2023-04-20T07:00:30.989Z,88.29
2023-04-20T07:01:33.005Z,88.22
2023-04-20T07:02:46.917Z,87.67
2023-04-20T07:03:49.143Z,87.63
2023-04-20T07:04:51.395Z,87.42
2023-04-20T07:05:53.467Z,86.88
2023-04-20T07:06:55.566Z,86.54
2023-04-20T07:07:57.724Z,86.00
2023-04-20T07:09:00.325Z,84.74
2023-04-20T07:10:02.425Z,85.03
2023-04-20T07:11:04.661Z,85.15
2023-04-20T07:12:10.634Z,84.82
2023-04-20T07:13:12.794Z,84.17
2023-04-20T07:14:14.651Z,84.81
2023-04-20T07:15:18.792Z,83.72
2023-04-20T07:16:21.532Z,83.72
2023-04-20T07:17:28.109Z,84.50
2023-04-20T07:18:30.221Z,84.04
2023-04-20T07:19:32.245Z,84.18
2023-04-20T07:20:35.534Z,84.12
2023-04-20T07:21:37.422Z,83.28
2023-04-20T07:22:39.471Z,82.88
2023-04-20T07:23:43.305Z,82.96
2023-04-20T07:24:45.445Z,82.33
2023-04-20T07:25:47.444Z,82.04
2023-04-20T07:26:49.421Z,81.87
2023-04-20T07:27:51.432Z,81.41
2023-04-20T07:28:53.836Z,82.36
2023-04-20T07:29:58.406Z,82.19
2023-04-20T07:31:01.089Z,81.71
2023-04-20T07:32:03.860Z,82.31
2023-04-20T07:33:05.905Z,81.23
2023-04-20T07:34:07.974Z,81.02
2023-04-20T07:35:10.477Z,79.80
2023-04-20T07:36:12.791Z,80.21
2023-04-20T07:37:14.771Z,79.99
2023-04-20T07:38:17.453Z,79.65
2023-04-20T07:39:19.665Z,79.55
2023-04-20T07:40:23.286Z,80.10
2023-04-20T07:41:25.317Z,79.59
2023-04-20T07:42:28.446Z,79.25
2023-04-20T07:43:30.331Z,79.59
2023-04-20T07:44:32.226Z,79.27
2023-04-20T07:45:34.233Z,79.79
2023-04-20T07:46:36.352Z,79.70
2023-04-20T07:47:38.470Z,79.78
2023-04-20T07:48:40.602Z,79.89
2023-04-20T07:49:43.515Z,80.08
2023-04-20T07:50:46.237Z,80.69
2023-04-20T07:51:48.382Z,81.11
2023-04-20T07:52:51.510Z,81.36
2023-04-20T07:53:53.533Z,81.94
2023-04-20T07:54:56.642Z,82.63
2023-04-20T07:55:58.631Z,82.84
2023-04-20T07:57:01.723Z,83.43
2023-04-20T07:58:03.696Z,84.62
2023-04-20T07:59:05.591Z,84.42
2023-04-20T08:00:11.750Z,84.39
2023-04-20T08:01:14.880Z,85.00
2023-04-20T08:02:17.007Z,85.21
2023-04-20T08:03:20.343Z,84.83
2023-04-20T08:04:22.876Z,84.89
2023-04-20T08:05:25.342Z,86.42
2023-04-20T08:06:28.629Z,86.73
2023-04-20T08:07:30.729Z,86.77
2023-04-20T08:08:32.623Z,87.19
2023-04-20T08:09:34.801Z,87.53
2023-04-20T08:10:36.821Z,87.58
2023-04-20T08:11:38.727Z,88.02
2023-04-20T08:12:41.705Z,88.46
2023-04-20T08:13:44.295Z,89.26
2023-04-20T08:14:46.143Z,88.85
2023-04-20T08:15:48.033Z,90.93
2023-04-20T08:16:50.162Z,90.93
2023-04-20T08:17:52.088Z,91.56
2023-04-20T08:18:53.976Z,92.64
2023-04-20T08:19:55.858Z,92.80
2023-04-20T08:20:58.082Z,93.43
2023-04-20T08:22:00.698Z,93.19
2023-04-20T08:23:03.646Z,93.76
2023-04-20T08:24:07.558Z,93.55
2023-04-20T08:25:09.501Z,93.30
2023-04-20T08:26:16.402Z,93.44
2023-04-20T08:27:18.417Z,93.92
2023-04-20T08:28:32.869Z,93.65
2023-04-20T08:29:25.450Z,94.49
2023-04-20T08:30:27.670Z,94.72
2023-04-20T08:31:29.583Z,94.78
2023-04-20T08:32:31.647Z,95.19
2023-04-20T08:33:33.719Z,94.89
2023-04-20T08:34:35.821Z,95.48
2023-04-20T08:35:38.358Z,94.75
2023-04-20T08:36:42.094Z,95.44
2023-04-20T08:37:43.984Z,95.91
2023-04-20T08:38:46.165Z,95.77
2023-04-20T08:39:48.081Z,95.07
2023-04-20T08:40:50.103Z,95.05
2023-04-20T08:41:52.460Z,95.44
2023-04-20T08:42:54.408Z,95.79
2023-04-20T08:43:56.374Z,96.41
2023-04-20T08:45:00.285Z,96.46
2023-04-20T08:46:03.345Z,96.45
2023-04-20T08:47:05.931Z,96.26
2023-04-20T08:48:10.485Z,95.96
2023-04-20T08:49:14.761Z,95.96
2023-04-20T08:50:19.299Z,96.62
2023-04-20T08:51:23.379Z,97.49
2023-04-20T08:52:25.314Z,96.80
2023-04-20T08:53:27.363Z,96.76
2023-04-20T08:54:30.482Z,95.92
2023-04-20T08:55:32.336Z,95.69
2023-04-20T08:56:36.359Z,95.91
2023-04-20T08:57:38.389Z,95.28
2023-04-20T08:58:40.282Z,95.32
2023-04-20T08:59:42.180Z,95.24
2023-04-20T09:00:48.478Z,95.32
2023-04-20T09:01:50.830Z,95.32
2023-04-20T09:02:56.042Z,95.66
2023-04-20T09:03:59.484Z,95.82
2023-04-20T09:05:04.139Z,95.86
2023-04-20T09:06:16.048Z,95.69
2023-04-20T09:07:19.983Z,96.03
2023-04-20T09:08:40.056Z,96.34
2023-04-20T09:09:53.411Z,96.13
2023-04-20T09:10:55.452Z,96.49
2023-04-20T09:12:07.240Z,95.80
2023-04-20T09:13:21.828Z,95.64
2023-04-20T09:14:23.881Z,94.82
2023-04-20T09:15:31.321Z,95.12
2023-04-20T09:16:35.178Z,95.12
2023-04-20T09:17:39.294Z,95.10
2023-04-20T09:18:45.053Z,94.58
2023-04-20T09:19:52.384Z,94.15
2023-04-20T09:20:54.523Z,93.96
2023-04-20T09:21:58.846Z,93.69
2023-04-20T09:23:16.212Z,93.57
2023-04-20T09:24:23.461Z,93.56
2023-04-20T09:25:26.147Z,93.83
2023-04-20T09:26:33.794Z,93.92
2023-04-20T09:27:36.313Z,93.92
2023-04-20T09:28:38.459Z,94.13
2023-04-20T09:29:40.961Z,94.35
2023-04-20T09:30:47.454Z,94.10
2023-04-20T09:31:50.061Z,94.14
2023-04-20T09:33:02.658Z,93.94
2023-04-20T09:34:05.977Z,93.91
2023-04-20T09:35:08.741Z,93.19
2023-04-20T09:36:11.850Z,93.32
2023-04-20T09:37:17.099Z,93.37
2023-04-20T09:38:22.763Z,92.87
2023-04-20T09:39:24.690Z,92.76
2023-04-20T09:40:27.581Z,91.99
2023-04-20T09:41:31.559Z,91.98
2023-04-20T09:42:37.901Z,91.83
2023-04-20T09:43:41.597Z,91.06
2023-04-20T09:44:45.781Z,90.56
2023-04-20T09:45:48.213Z,90.03
2023-04-20T09:46:51.877Z,88.98
2023-04-20T09:47:54.627Z,88.93
2023-04-20T09:49:02.183Z,88.77
2023-04-20T09:50:19.480Z,88.50
2023-04-20T09:51:12.834Z,88.21
2023-04-20T09:53:33.797Z,87.83
2023-04-20T09:54:37.442Z,86.73
2023-04-20T09:55:40.401Z,86.50
2023-04-20T09:56:42.998Z,86.50
2023-04-20T09:57:45.060Z,86.83
2023-04-20T09:58:47.366Z,87.16
2023-04-20T09:59:52.706Z,87.09
2023-04-20T10:00:55.626Z,86.75
2023-04-20T10:01:58.207Z,86.75
2023-04-20T10:03:00.602Z,87.15
2023-04-20T10:04:10.396Z,87.54
2023-04-20T10:05:13.220Z,87.66
2023-04-20T10:06:24.193Z,87.53
2023-04-20T10:07:31.061Z,87.58
2023-04-20T10:08:40.718Z,87.73
2023-04-20T10:09:42.732Z,87.75
2023-04-20T10:10:47.624Z,87.28
2023-04-20T10:11:53.979Z,87.05
2023-04-20T10:12:55.877Z,86.51
2023-04-20T10:13:59.415Z,86.27
2023-04-20T10:15:01.474Z,86.34
2023-04-20T10:16:03.952Z,86.73
2023-04-20T10:17:09.548Z,86.12
2023-04-20T10:19:41.801Z,86.36
2023-04-20T10:20:44.034Z,86.00
2023-04-20T10:21:48.406Z,85.74
2023-04-20T10:22:58.028Z,86.42
2023-04-20T10:24:01.346Z,86.64
2023-04-20T10:25:08.744Z,86.70
2023-04-20T10:26:11.292Z,86.60
2023-04-20T10:27:20.656Z,86.54
2023-04-20T10:28:22.771Z,86.78
2023-04-20T10:29:26.379Z,86.75
2023-04-20T10:30:28.927Z,86.96
2023-04-20T10:31:38.707Z,86.26
2023-04-20T10:32:40.787Z,86.38
2023-04-20T10:33:54.049Z,87.49
2023-04-20T10:35:12.786Z,87.42
2023-04-20T10:36:24.307Z,87.39
2023-04-20T10:37:27.121Z,88.47
2023-04-20T10:38:35.014Z,89.21
2023-04-20T10:39:45.701Z,88.54
2023-04-20T10:40:47.769Z,89.30
2023-04-20T10:41:55.320Z,89.79
2023-04-20T10:42:57.456Z,89.48
2023-04-20T10:44:09.684Z,88.32
2023-04-20T10:45:12.627Z,88.37
2023-04-20T10:46:23.563Z,88.56
2023-04-20T10:47:30.990Z,88.26
2023-04-20T10:48:34.141Z,88.79
2023-04-20T10:49:36.015Z,88.34
2023-04-20T10:50:38.503Z,89.28
2023-04-20T10:51:51.689Z,89.23
2023-04-20T10:52:53.936Z,88.45
2023-04-20T10:54:02.016Z,89.12
2023-04-20T10:55:06.234Z,88.99
2023-04-20T10:56:08.476Z,88.63
2023-04-20T10:57:14.119Z,87.82
2023-04-20T10:58:24.119Z,87.61
2023-04-20T10:59:28.541Z,86.49
2023-04-20T11:00:30.657Z,86.62
2023-04-20T11:01:32.880Z,86.13
2023-04-20T11:02:35.078Z,85.87
2023-04-20T11:03:41.215Z,85.17
2023-04-20T11:04:43.372Z,85.24
2023-04-20T11:05:49.144Z,84.91
2023-04-20T11:06:51.184Z,83.92
2023-04-20T11:07:56.041Z,83.98
2023-04-20T11:08:58.130Z,84.37
2023-04-20T11:10:00.012Z,84.25
2023-04-20T11:11:02.058Z,84.21
2023-04-20T11:12:10.184Z,83.91
2023-04-20T11:13:22.706Z,84.01
2023-04-20T11:14:25.810Z,83.97
2023-04-20T11:15:34.210Z,83.78
2023-04-20T11:16:49.572Z,83.71
2023-04-20T11:17:42.157Z,83.96
2023-04-20T11:18:52.813Z,84.05
2023-04-20T11:19:58.869Z,82.94
2023-04-20T11:21:00.887Z,83.05
2023-04-20T11:22:04.765Z,83.70
2023-04-20T11:23:06.720Z,82.83
2023-04-20T11:24:23.097Z,83.01
2023-04-20T11:25:25.583Z,82.69
2023-04-20T11:26:36.539Z,82.31
2023-04-20T11:27:39.109Z,81.59
2023-04-20T11:28:56.030Z,81.22
2023-04-20T11:29:58.076Z,81.38
2023-04-20T11:31:00.423Z,80.30
2023-04-20T11:32:05.181Z,79.72
2023-04-20T11:33:08.185Z,79.86
2023-04-20T11:34:18.328Z,79.38
2023-04-20T11:35:20.604Z,79.12
2023-04-20T11:36:23.921Z,78.53
2023-04-20T11:37:27.245Z,78.31
2023-04-20T11:38:31.372Z,78.07
2023-04-20T11:39:33.980Z,77.31
2023-04-20T11:40:36.301Z,77.26
2023-04-20T11:41:38.343Z,76.84
2023-04-20T11:42:40.380Z,76.96
2023-04-20T11:43:42.501Z,76.39
2023-04-20T11:44:45.924Z,75.18
2023-04-20T11:45:47.874Z,75.15
2023-04-20T11:46:50.021Z,75.32
2023-04-20T11:47:51.900Z,75.36
2023-04-20T11:48:53.942Z,75.16
2023-04-20T11:49:55.841Z,75.87
2023-04-20T11:50:58.958Z,75.55
2023-04-20T11:52:00.955Z,75.36
2023-04-20T11:53:02.814Z,75.61
2023-04-20T11:54:04.813Z,75.50
2023-04-20T11:55:08.180Z,75.37
2023-04-20T11:56:12.047Z,75.38
2023-04-20T11:57:13.892Z,75.19
2023-04-20T11:58:15.823Z,75.47
2023-04-20T11:59:20.791Z,75.01
2023-04-20T12:00:23.566Z,74.59
2023-04-20T12:01:25.567Z,74.65
2023-04-20T12:02:27.495Z,74.36
2023-04-20T12:03:29.735Z,73.75
2023-04-20T12:04:32.437Z,74.53
2023-04-20T12:05:34.610Z,74.29
2023-04-20T12:06:37.830Z,74.22
2023-04-20T12:07:39.694Z,74.18
2023-04-20T12:08:41.535Z,74.46
2023-04-20T12:09:43.431Z,74.22
2023-04-20T12:10:45.606Z,73.55
2023-04-20T12:11:47.676Z,72.53
2023-04-20T12:12:49.539Z,73.00
2023-04-20T12:13:51.934Z,72.96
2023-04-20T12:14:55.032Z,72.97
2023-04-20T12:15:57.072Z,73.04
2023-04-20T12:17:06.067Z,72.53
2023-04-20T12:18:08.328Z,72.45
2023-04-20T12:19:10.395Z,72.20
2023-04-20T12:20:13.187Z,71.52
2023-04-20T12:21:15.264Z,71.67
2023-04-20T12:22:17.240Z,71.66
2023-04-20T12:23:19.112Z,71.77
2023-04-20T12:24:21.180Z,71.96
2023-04-20T12:25:23.046Z,71.60
2023-04-20T12:26:34.823Z,71.60
2023-04-20T12:27:29.100Z,71.44
2023-04-20T12:28:32.051Z,71.26
2023-04-20T12:29:33.990Z,71.34
2023-04-20T12:30:36.111Z,71.12
2023-04-20T12:31:38.034Z,71.82
2023-04-20T12:32:40.287Z,71.62
2023-04-20T12:33:42.492Z,71.92
2023-04-20T12:34:44.705Z,71.20
2023-04-20T12:35:46.596Z,71.05
2023-04-20T12:36:48.649Z,72.42
2023-04-20T12:37:50.520Z,71.39
2023-04-20T12:38:52.680Z,71.39
2023-04-20T12:39:54.661Z,71.63
2023-04-20T12:40:57.208Z,71.42
2023-04-20T12:41:59.385Z,72.18
2023-04-20T12:43:01.247Z,72.41
2023-04-20T12:44:06.146Z,72.10
2023-04-20T12:45:08.089Z,71.58
2023-04-20T12:46:10.297Z,71.66
2023-04-20T12:47:12.343Z,72.25
2023-04-20T12:48:14.634Z,72.06
2023-04-20T12:49:16.802Z,72.33
2023-04-20T12:50:19.482Z,72.81
2023-04-20T12:51:21.468Z,72.16
2023-04-20T12:52:23.568Z,72.21
2023-04-20T12:53:25.472Z,72.91
2023-04-20T12:54:27.474Z,73.94
2023-04-20T12:55:29.374Z,74.22
2023-04-20T12:56:31.441Z,75.10
2023-04-20T12:57:33.527Z,74.50
2023-04-20T12:58:36.747Z,75.18
2023-04-20T12:59:38.640Z,74.54
2023-04-20T13:00:42.163Z,72.76
2023-04-20T13:01:44.162Z,72.03
2023-04-20T13:02:46.255Z,72.24
2023-04-20T13:03:50.697Z,72.46
2023-04-20T13:04:52.956Z,73.25
2023-04-20T13:05:54.939Z,73.96
2023-04-20T13:06:57.133Z,73.27
2023-04-20T13:07:59.257Z,73.74
2023-04-20T13:09:02.645Z,73.93
2023-04-20T13:10:05.937Z,74.64
2023-04-20T13:11:10.552Z,72.05
2023-04-20T13:12:12.867Z,71.30
2023-04-20T13:13:14.915Z,70.90
2023-04-20T13:14:17.696Z,71.29
2023-04-20T13:15:31.983Z,72.03
2023-04-20T13:16:26.272Z,70.93
2023-04-20T13:17:28.926Z,71.13
2023-04-20T13:18:31.090Z,71.44
2023-04-20T13:19:34.708Z,70.94
2023-04-20T13:20:36.931Z,71.55
2023-04-20T13:21:38.903Z,71.24
2023-04-20T13:22:46.983Z,69.12
2023-04-20T13:23:44.668Z,69.49
2023-04-20T13:24:46.696Z,68.65
2023-04-20T13:25:48.654Z,68.19
2023-04-20T13:26:54.135Z,67.98
2023-04-20T13:27:57.228Z,68.44
2023-04-20T13:29:01.508Z,68.29
2023-04-20T13:30:05.110Z,68.56
2023-04-20T13:31:07.467Z,68.04
2023-04-20T13:32:11.036Z,65.71
2023-04-20T13:33:13.106Z,66.16
2023-04-20T13:34:15.648Z,66.05
2023-04-20T13:35:19.305Z,66.23
2023-04-20T13:36:23.523Z,65.72